AFR033 LFPG-LFML
Flight info
| Callsign | AFR033 |
|---|---|
| Flight time | 1h 12m |
| Altitude | 29000 |
| Route | LATRA DCT LAMUT DCT UTUVA DCT LERGA |
| Aircraft | A343/H-SDE2E3FGHIJ4J5M1RWXY/LB1D1 |
Departure
| Time | 2026-05-04 20:39 |
|---|---|
| Airport | Charles de Gaulle International Airport (LFPG) |
Arrival
| Time | 2026-05-04 21:51 |
|---|---|
| Airport | Marseille Provence Airport (LFML) |
| Time | Latitude | Longitude | Altitude | Speed | Heading |
|---|---|---|---|---|---|
| 2026-05-04 20:02 | 49.00329 | 2.58997 | 358 ft | 0 kts | 84° |
| 2026-05-04 20:24 | 49.00328 | 2.58966 | 361 ft | 4 kts | 86° |
| 2026-05-04 20:24 | 49.00326 | 2.58935 | 359 ft | 4 kts | 85° |
| 2026-05-04 20:25 | 49.00326 | 2.58897 | 358 ft | 4 kts | 106° |
| 2026-05-04 20:25 | 49.00338 | 2.58868 | 364 ft | 4 kts | 164° |
| 2026-05-04 20:25 | 49.00361 | 2.58863 | 359 ft | 4 kts | 174° |
| 2026-05-04 20:25 | 49.00373 | 2.58862 | 359 ft | 0 kts | 174° |
| 2026-05-04 20:30 | 49.00335 | 2.58867 | 363 ft | 12 kts | 175° |
| 2026-05-04 20:31 | 49.00218 | 2.58880 | 366 ft | 19 kts | 176° |
| 2026-05-04 20:31 | 49.00082 | 2.58882 | 366 ft | 19 kts | 200° |
| 2026-05-04 20:31 | 49.00035 | 2.58720 | 358 ft | 18 kts | 264° |
| 2026-05-04 20:31 | 49.00022 | 2.58496 | 358 ft | 28 kts | 264° |
| 2026-05-04 20:32 | 49.00002 | 2.58161 | 367 ft | 34 kts | 264° |
| 2026-05-04 20:32 | 48.99983 | 2.57800 | 363 ft | 34 kts | 267° |
| 2026-05-04 20:32 | 48.99964 | 2.57442 | 358 ft | 33 kts | 265° |
| 2026-05-04 20:32 | 48.99948 | 2.57107 | 364 ft | 31 kts | 264° |
| 2026-05-04 20:33 | 48.99930 | 2.56791 | 366 ft | 30 kts | 265° |
| 2026-05-04 20:33 | 48.99912 | 2.56478 | 364 ft | 29 kts | 265° |
| 2026-05-04 20:33 | 48.99896 | 2.56168 | 358 ft | 29 kts | 269° |
| 2026-05-04 20:33 | 48.99896 | 2.55874 | 360 ft | 24 kts | 265° |
| 2026-05-04 20:34 | 48.99846 | 2.55799 | 367 ft | 7 kts | 182° |
| 2026-05-04 20:34 | 48.99779 | 2.55806 | 363 ft | 13 kts | 175° |
| 2026-05-04 20:34 | 48.99733 | 2.55811 | 359 ft | 0 kts | 175° |
| 2026-05-04 20:34 | 48.99726 | 2.55812 | 360 ft | 2 kts | 175° |
| 2026-05-04 20:35 | 48.99721 | 2.55813 | 361 ft | 0 kts | 175° |
| 2026-05-04 20:37 | 48.99720 | 2.55813 | 361 ft | 2 kts | 176° |
| 2026-05-04 20:37 | 48.99671 | 2.55819 | 360 ft | 12 kts | 175° |
| 2026-05-04 20:37 | 48.99609 | 2.55916 | 359 ft | 15 kts | 97° |
| 2026-05-04 20:37 | 48.99613 | 2.56249 | 361 ft | 57 kts | 88° |
| 2026-05-04 20:38 | 48.99662 | 2.57118 | 361 ft | 107 kts | 83° |
| 2026-05-04 20:38 | 48.99744 | 2.58478 | 363 ft | 147 kts | 85° |
| 2026-05-04 20:38 | 48.99846 | 2.60191 | 403 ft | 175 kts | 85° |
| 2026-05-04 20:38 | 48.99941 | 2.62018 | 928 ft | 171 kts | 72° |
| 2026-05-04 20:39 | 49.00148 | 2.63830 | 1438 ft | 177 kts | 81° |
| 2026-05-04 20:39 | 49.00310 | 2.65613 | 1843 ft | 160 kts | 83° |
| 2026-05-04 20:39 | 49.00440 | 2.67240 | 1921 ft | 153 kts | 82° |
| 2026-05-04 20:39 | 49.00586 | 2.68957 | 2210 ft | 172 kts | 82° |
| 2026-05-04 20:40 | 49.00749 | 2.70813 | 2650 ft | 185 kts | 82° |
| 2026-05-04 20:40 | 49.00921 | 2.72768 | 3183 ft | 187 kts | 82° |
| 2026-05-04 20:40 | 49.01097 | 2.74748 | 3834 ft | 190 kts | 82° |
| 2026-05-04 20:40 | 49.01273 | 2.76756 | 4435 ft | 192 kts | 83° |
| 2026-05-04 20:41 | 49.01323 | 2.78781 | 5031 ft | 192 kts | 89° |
| 2026-05-04 20:41 | 49.01472 | 2.80746 | 5830 ft | 183 kts | 83° |
| 2026-05-04 20:41 | 49.01585 | 2.82657 | 6547 ft | 178 kts | 86° |
| 2026-05-04 20:41 | 49.01666 | 2.84504 | 7180 ft | 174 kts | 84° |
| 2026-05-04 20:42 | 49.01834 | 2.86311 | 7772 ft | 170 kts | 81° |
| 2026-05-04 20:42 | 49.01900 | 2.88079 | 8314 ft | 167 kts | 96° |
| 2026-05-04 20:42 | 49.01581 | 2.89778 | 8799 ft | 170 kts | 126° |
| 2026-05-04 20:42 | 49.00635 | 2.90858 | 9180 ft | 178 kts | 166° |
| 2026-05-04 20:43 | 48.99397 | 2.90795 | 9629 ft | 186 kts | 198° |
| 2026-05-04 20:43 | 48.98226 | 2.89861 | 10044 ft | 195 kts | 210° |
| 2026-05-04 20:43 | 48.97036 | 2.88736 | 10589 ft | 201 kts | 214° |
| 2026-05-04 20:43 | 48.95915 | 2.87556 | 11264 ft | 197 kts | 213° |
| 2026-05-04 20:44 | 48.94723 | 2.86293 | 11468 ft | 224 kts | 214° |
| 2026-05-04 20:44 | 48.93396 | 2.84829 | 11656 ft | 251 kts | 216° |
| 2026-05-04 20:44 | 48.91908 | 2.83226 | 11997 ft | 271 kts | 209° |
| 2026-05-04 20:44 | 48.90243 | 2.81679 | 12366 ft | 289 kts | 214° |
| 2026-05-04 20:45 | 48.88598 | 2.79780 | 12783 ft | 304 kts | 217° |
| 2026-05-04 20:45 | 48.86904 | 2.77739 | 13251 ft | 316 kts | 217° |
| 2026-05-04 20:45 | 48.85019 | 2.75940 | 13761 ft | 322 kts | 206° |
| 2026-05-04 20:45 | 48.83018 | 2.74395 | 14169 ft | 318 kts | 206° |
| 2026-05-04 20:46 | 48.81114 | 2.72927 | 14456 ft | 296 kts | 206° |
| 2026-05-04 20:46 | 48.79333 | 2.71551 | 14652 ft | 278 kts | 206° |
| 2026-05-04 20:46 | 48.77679 | 2.70272 | 14753 ft | 264 kts | 206° |
| 2026-05-04 20:46 | 48.76057 | 2.69017 | 14756 ft | 254 kts | 206° |
| 2026-05-04 20:47 | 48.74513 | 2.67822 | 14820 ft | 238 kts | 206° |
| 2026-05-04 20:47 | 48.73078 | 2.66743 | 15266 ft | 237 kts | 201° |
| 2026-05-04 20:47 | 48.71454 | 2.66063 | 15593 ft | 246 kts | 192° |
| 2026-05-04 20:47 | 48.69744 | 2.65585 | 15954 ft | 251 kts | 191° |
| 2026-05-04 20:48 | 48.68019 | 2.65115 | 16313 ft | 253 kts | 189° |
| 2026-05-04 20:48 | 48.66275 | 2.64697 | 16678 ft | 255 kts | 189° |
| 2026-05-04 20:48 | 48.64510 | 2.64258 | 17045 ft | 258 kts | 190° |
| 2026-05-04 20:48 | 48.62739 | 2.63774 | 17421 ft | 258 kts | 191° |
| 2026-05-04 20:49 | 48.60972 | 2.63238 | 17797 ft | 261 kts | 192° |
| 2026-05-04 20:49 | 48.59186 | 2.62637 | 18189 ft | 264 kts | 194° |
| 2026-05-04 20:49 | 48.57390 | 2.62030 | 18561 ft | 265 kts | 191° |
| 2026-05-04 20:49 | 48.55568 | 2.61505 | 18902 ft | 267 kts | 192° |
| 2026-05-04 20:50 | 48.53727 | 2.61066 | 19258 ft | 269 kts | 189° |
| 2026-05-04 20:50 | 48.51874 | 2.60641 | 19574 ft | 269 kts | 189° |
| 2026-05-04 20:50 | 48.50025 | 2.60184 | 19883 ft | 271 kts | 190° |
| 2026-05-04 20:50 | 48.48164 | 2.59688 | 20204 ft | 272 kts | 191° |
| 2026-05-04 20:51 | 48.46291 | 2.59147 | 20542 ft | 277 kts | 192° |
| 2026-05-04 20:51 | 48.44389 | 2.58549 | 20905 ft | 282 kts | 192° |
| 2026-05-04 20:51 | 48.42455 | 2.57886 | 21269 ft | 286 kts | 193° |
| 2026-05-04 20:51 | 48.40504 | 2.57215 | 21668 ft | 289 kts | 192° |
| 2026-05-04 20:52 | 48.38521 | 2.56645 | 22093 ft | 291 kts | 190° |
| 2026-05-04 20:52 | 48.36509 | 2.56137 | 22394 ft | 297 kts | 188° |
| 2026-05-04 20:52 | 48.34431 | 2.55768 | 22452 ft | 312 kts | 187° |
| 2026-05-04 20:52 | 48.32231 | 2.55387 | 22474 ft | 327 kts | 187° |
| 2026-05-04 20:53 | 48.29910 | 2.54986 | 22495 ft | 343 kts | 187° |
| 2026-05-04 20:53 | 48.27478 | 2.54564 | 22508 ft | 359 kts | 187° |
| 2026-05-04 20:53 | 48.24944 | 2.54125 | 22523 ft | 374 kts | 187° |
| 2026-05-04 20:53 | 48.22328 | 2.53670 | 22524 ft | 381 kts | 187° |
| 2026-05-04 20:54 | 48.19716 | 2.53217 | 22522 ft | 375 kts | 187° |
| 2026-05-04 20:54 | 48.17120 | 2.52782 | 22517 ft | 373 kts | 187° |
| 2026-05-04 20:54 | 48.14536 | 2.52370 | 22520 ft | 374 kts | 187° |
| 2026-05-04 20:54 | 48.11947 | 2.51962 | 22623 ft | 374 kts | 187° |
| 2026-05-04 20:55 | 48.09349 | 2.51552 | 22936 ft | 377 kts | 187° |
| 2026-05-04 20:55 | 48.06738 | 2.51144 | 23530 ft | 376 kts | 187° |
| 2026-05-04 20:55 | 48.04131 | 2.50740 | 24006 ft | 377 kts | 187° |
| 2026-05-04 20:55 | 48.01528 | 2.50336 | 24432 ft | 378 kts | 187° |
| 2026-05-04 20:56 | 47.98901 | 2.49925 | 24851 ft | 379 kts | 187° |
| 2026-05-04 20:56 | 47.96287 | 2.49516 | 25270 ft | 380 kts | 187° |
| 2026-05-04 20:56 | 47.93647 | 2.49107 | 25689 ft | 381 kts | 186° |
| 2026-05-04 20:56 | 47.90987 | 2.49120 | 25904 ft | 387 kts | 173° |
| 2026-05-04 20:57 | 47.88373 | 2.50167 | 25933 ft | 389 kts | 161° |
| 2026-05-04 20:57 | 47.85874 | 2.51698 | 25925 ft | 389 kts | 159° |
| 2026-05-04 20:57 | 47.83380 | 2.53304 | 25911 ft | 390 kts | 159° |
| 2026-05-04 20:57 | 47.80896 | 2.54906 | 25908 ft | 390 kts | 159° |
| 2026-05-04 20:58 | 47.78401 | 2.56509 | 25920 ft | 390 kts | 159° |
| 2026-05-04 20:58 | 47.75909 | 2.58108 | 25917 ft | 390 kts | 159° |
| 2026-05-04 20:58 | 47.73419 | 2.59702 | 25917 ft | 389 kts | 159° |
| 2026-05-04 20:58 | 47.70969 | 2.61269 | 25917 ft | 388 kts | 159° |
| 2026-05-04 20:59 | 47.68464 | 2.62870 | 25914 ft | 388 kts | 159° |
| 2026-05-04 20:59 | 47.66013 | 2.64435 | 25914 ft | 388 kts | 159° |
| 2026-05-04 20:59 | 47.63531 | 2.66019 | 25914 ft | 388 kts | 159° |
| 2026-05-04 20:59 | 47.61058 | 2.67595 | 25914 ft | 388 kts | 159° |
| 2026-05-04 21:00 | 47.58571 | 2.69180 | 25916 ft | 388 kts | 159° |
| 2026-05-04 21:00 | 47.56104 | 2.70754 | 25917 ft | 388 kts | 159° |
| 2026-05-04 21:00 | 47.53623 | 2.72336 | 25917 ft | 387 kts | 159° |
| 2026-05-04 21:00 | 47.51152 | 2.73911 | 25914 ft | 387 kts | 159° |
| 2026-05-04 21:01 | 47.48675 | 2.75488 | 25911 ft | 387 kts | 159° |
| 2026-05-04 21:01 | 47.46209 | 2.77056 | 25911 ft | 387 kts | 159° |
| 2026-05-04 21:01 | 47.43735 | 2.78628 | 25911 ft | 387 kts | 159° |
| 2026-05-04 21:01 | 47.41272 | 2.80192 | 25912 ft | 387 kts | 159° |
| 2026-05-04 21:02 | 47.38793 | 2.81755 | 25908 ft | 386 kts | 160° |
| 2026-05-04 21:02 | 47.36276 | 2.83155 | 25915 ft | 386 kts | 162° |
| 2026-05-04 21:02 | 47.33778 | 2.84439 | 25915 ft | 386 kts | 163° |
| 2026-05-04 21:02 | 47.31245 | 2.85733 | 25914 ft | 385 kts | 163° |
| 2026-05-04 21:03 | 47.28727 | 2.87018 | 25914 ft | 385 kts | 163° |
| 2026-05-04 21:03 | 47.26185 | 2.88316 | 25912 ft | 384 kts | 163° |
| 2026-05-04 21:03 | 47.23664 | 2.89601 | 25896 ft | 384 kts | 163° |
| 2026-05-04 21:03 | 47.21172 | 2.90882 | 25910 ft | 385 kts | 163° |
| 2026-05-04 21:04 | 47.19467 | 2.91764 | 25911 ft | 386 kts | 163° |
| 2026-05-04 21:04 | 47.16129 | 2.93491 | 25906 ft | 386 kts | 163° |
| 2026-05-04 21:04 | 47.14423 | 2.94373 | 25906 ft | 386 kts | 163° |
| 2026-05-04 21:04 | 47.11064 | 2.96107 | 25906 ft | 386 kts | 163° |
| 2026-05-04 21:05 | 47.09359 | 2.96985 | 25903 ft | 385 kts | 163° |
| 2026-05-04 21:05 | 47.06832 | 2.98287 | 25903 ft | 385 kts | 163° |
| 2026-05-04 21:05 | 47.04329 | 2.99577 | 25904 ft | 385 kts | 163° |
| 2026-05-04 21:05 | 47.01794 | 3.00882 | 25903 ft | 385 kts | 163° |
| 2026-05-04 21:06 | 46.99271 | 3.02180 | 25906 ft | 385 kts | 163° |
| 2026-05-04 21:06 | 46.96777 | 3.03411 | 25906 ft | 385 kts | 164° |
| 2026-05-04 21:06 | 46.94250 | 3.04636 | 25906 ft | 385 kts | 164° |
| 2026-05-04 21:06 | 46.91701 | 3.05868 | 25900 ft | 385 kts | 164° |
| 2026-05-04 21:07 | 46.89162 | 3.07090 | 25903 ft | 385 kts | 164° |
| 2026-05-04 21:07 | 46.86653 | 3.08296 | 25903 ft | 384 kts | 164° |
| 2026-05-04 21:07 | 46.84134 | 3.09506 | 25903 ft | 384 kts | 164° |
| 2026-05-04 21:07 | 46.81579 | 3.10732 | 25903 ft | 384 kts | 164° |
| 2026-05-04 21:08 | 46.79177 | 3.11884 | 25903 ft | 384 kts | 164° |
| 2026-05-04 21:08 | 46.76613 | 3.13105 | 25900 ft | 384 kts | 165° |
| 2026-05-04 21:08 | 46.74052 | 3.14196 | 25900 ft | 384 kts | 166° |
| 2026-05-04 21:08 | 46.71496 | 3.15320 | 25900 ft | 384 kts | 165° |
| 2026-05-04 21:09 | 46.68946 | 3.16461 | 25903 ft | 384 kts | 165° |
| 2026-05-04 21:09 | 46.66416 | 3.17595 | 25903 ft | 384 kts | 165° |
| 2026-05-04 21:09 | 46.63828 | 3.18754 | 25903 ft | 384 kts | 165° |
| 2026-05-04 21:09 | 46.61306 | 3.19883 | 25903 ft | 384 kts | 165° |
| 2026-05-04 21:10 | 46.58725 | 3.21038 | 25905 ft | 384 kts | 165° |
| 2026-05-04 21:10 | 46.56172 | 3.22179 | 25905 ft | 384 kts | 165° |
| 2026-05-04 21:10 | 46.53620 | 3.23322 | 25899 ft | 384 kts | 165° |
| 2026-05-04 21:10 | 46.51076 | 3.24481 | 25905 ft | 383 kts | 165° |
| 2026-05-04 21:11 | 46.48547 | 3.25644 | 25906 ft | 381 kts | 165° |
| 2026-05-04 21:11 | 46.46049 | 3.26793 | 25906 ft | 380 kts | 165° |
| 2026-05-04 21:11 | 46.43521 | 3.27910 | 25908 ft | 380 kts | 166° |
| 2026-05-04 21:11 | 46.40997 | 3.28997 | 25908 ft | 380 kts | 166° |
| 2026-05-04 21:12 | 46.38462 | 3.30084 | 25906 ft | 379 kts | 166° |
| 2026-05-04 21:12 | 46.35928 | 3.31169 | 25908 ft | 380 kts | 166° |
| 2026-05-04 21:12 | 46.33397 | 3.32253 | 25909 ft | 380 kts | 166° |
| 2026-05-04 21:12 | 46.30836 | 3.33202 | 25909 ft | 378 kts | 171° |
| 2026-05-04 21:13 | 46.28245 | 3.33786 | 25908 ft | 377 kts | 174° |
| 2026-05-04 21:13 | 46.25643 | 3.34243 | 25911 ft | 376 kts | 175° |
| 2026-05-04 21:13 | 46.23056 | 3.34773 | 25907 ft | 378 kts | 169° |
| 2026-05-04 21:13 | 46.20524 | 3.35825 | 25911 ft | 379 kts | 165° |
| 2026-05-04 21:14 | 46.18017 | 3.37021 | 25915 ft | 379 kts | 164° |
| 2026-05-04 21:14 | 46.15513 | 3.38234 | 25914 ft | 379 kts | 164° |
| 2026-05-04 21:14 | 46.13004 | 3.39451 | 25914 ft | 379 kts | 164° |
| 2026-05-04 21:14 | 46.10512 | 3.40658 | 25914 ft | 379 kts | 164° |
| 2026-05-04 21:15 | 46.08007 | 3.41868 | 25915 ft | 379 kts | 164° |
| 2026-05-04 21:15 | 46.05508 | 3.43076 | 25914 ft | 379 kts | 164° |
| 2026-05-04 21:15 | 46.03009 | 3.44283 | 25914 ft | 379 kts | 164° |
| 2026-05-04 21:15 | 46.00514 | 3.45488 | 25914 ft | 379 kts | 164° |
| 2026-05-04 21:16 | 45.98044 | 3.46681 | 25914 ft | 379 kts | 164° |
| 2026-05-04 21:16 | 45.95540 | 3.47889 | 25925 ft | 379 kts | 164° |
| 2026-05-04 21:16 | 45.93046 | 3.49091 | 25924 ft | 379 kts | 164° |
| 2026-05-04 21:16 | 45.90564 | 3.50377 | 25632 ft | 381 kts | 159° |
| 2026-05-04 21:17 | 45.88231 | 3.52210 | 25097 ft | 385 kts | 150° |
| 2026-05-04 21:17 | 45.86022 | 3.54383 | 24700 ft | 383 kts | 148° |
| 2026-05-04 21:17 | 45.83806 | 3.56476 | 24288 ft | 380 kts | 151° |
| 2026-05-04 21:17 | 45.81598 | 3.58459 | 23870 ft | 379 kts | 151° |
| 2026-05-04 21:18 | 45.79382 | 3.60429 | 23440 ft | 378 kts | 151° |
| 2026-05-04 21:18 | 45.77086 | 3.62459 | 22923 ft | 377 kts | 151° |
| 2026-05-04 21:18 | 45.74900 | 3.64387 | 22511 ft | 375 kts | 151° |
| 2026-05-04 21:18 | 45.72641 | 3.66376 | 22060 ft | 372 kts | 151° |
| 2026-05-04 21:19 | 45.70452 | 3.68301 | 21644 ft | 370 kts | 151° |
| 2026-05-04 21:19 | 45.68276 | 3.70230 | 21240 ft | 366 kts | 151° |
| 2026-05-04 21:19 | 45.66136 | 3.72128 | 20835 ft | 365 kts | 151° |
| 2026-05-04 21:19 | 45.63985 | 3.74032 | 20424 ft | 363 kts | 151° |
| 2026-05-04 21:20 | 45.61834 | 3.75933 | 20021 ft | 361 kts | 151° |
| 2026-05-04 21:20 | 45.59659 | 3.77649 | 19645 ft | 357 kts | 157° |
| 2026-05-04 21:20 | 45.57403 | 3.79128 | 19241 ft | 355 kts | 156° |
| 2026-05-04 21:20 | 45.55180 | 3.80684 | 18849 ft | 354 kts | 156° |
| 2026-05-04 21:21 | 45.52974 | 3.82202 | 18481 ft | 352 kts | 157° |
| 2026-05-04 21:21 | 45.50764 | 3.83696 | 18078 ft | 351 kts | 157° |
| 2026-05-04 21:21 | 45.48570 | 3.85175 | 17665 ft | 349 kts | 157° |
| 2026-05-04 21:21 | 45.46375 | 3.86649 | 17241 ft | 347 kts | 157° |
| 2026-05-04 21:22 | 45.44189 | 3.88107 | 16814 ft | 345 kts | 157° |
| 2026-05-04 21:22 | 45.42012 | 3.89540 | 16414 ft | 344 kts | 157° |
| 2026-05-04 21:22 | 45.39846 | 3.90954 | 16010 ft | 342 kts | 157° |
| 2026-05-04 21:22 | 45.37685 | 3.92358 | 15607 ft | 341 kts | 157° |
| 2026-05-04 21:23 | 45.35525 | 3.93733 | 15213 ft | 339 kts | 158° |
| 2026-05-04 21:23 | 45.33358 | 3.95069 | 14835 ft | 338 kts | 158° |
| 2026-05-04 21:23 | 45.31202 | 3.96388 | 14473 ft | 337 kts | 158° |
| 2026-05-04 21:23 | 45.29055 | 3.97706 | 14095 ft | 336 kts | 158° |
| 2026-05-04 21:24 | 45.26914 | 3.99026 | 13735 ft | 335 kts | 158° |
| 2026-05-04 21:24 | 45.24802 | 4.00326 | 13309 ft | 334 kts | 158° |
| 2026-05-04 21:24 | 45.22676 | 4.01632 | 12931 ft | 332 kts | 158° |
| 2026-05-04 21:24 | 45.20543 | 4.02941 | 12554 ft | 330 kts | 158° |
| 2026-05-04 21:25 | 45.18462 | 4.04217 | 12174 ft | 328 kts | 158° |
| 2026-05-04 21:25 | 45.16375 | 4.05495 | 11804 ft | 326 kts | 158° |
| 2026-05-04 21:25 | 45.14323 | 4.06751 | 11418 ft | 324 kts | 158° |
| 2026-05-04 21:25 | 45.12251 | 4.08018 | 11040 ft | 323 kts | 158° |
| 2026-05-04 21:26 | 45.10204 | 4.09272 | 10709 ft | 320 kts | 158° |
| 2026-05-04 21:26 | 45.08171 | 4.10518 | 10361 ft | 317 kts | 158° |
| 2026-05-04 21:26 | 45.06144 | 4.11756 | 10023 ft | 315 kts | 158° |
| 2026-05-04 21:26 | 45.04131 | 4.12982 | 9625 ft | 314 kts | 158° |
| 2026-05-04 21:27 | 45.02130 | 4.14198 | 9225 ft | 312 kts | 158° |
| 2026-05-04 21:27 | 45.00148 | 4.15408 | 8920 ft | 307 kts | 158° |
| 2026-05-04 21:27 | 44.98209 | 4.16590 | 8606 ft | 302 kts | 158° |
| 2026-05-04 21:27 | 44.96275 | 4.17758 | 8203 ft | 301 kts | 158° |
| 2026-05-04 21:28 | 44.94383 | 4.18899 | 7841 ft | 298 kts | 158° |
| 2026-05-04 21:28 | 44.92488 | 4.20042 | 7427 ft | 294 kts | 158° |
| 2026-05-04 21:28 | 44.90599 | 4.21173 | 7158 ft | 288 kts | 158° |
| 2026-05-04 21:28 | 44.88763 | 4.22237 | 7011 ft | 286 kts | 158° |
| 2026-05-04 21:29 | 44.86933 | 4.23290 | 6972 ft | 288 kts | 158° |
| 2026-05-04 21:29 | 44.85070 | 4.24343 | 6972 ft | 289 kts | 158° |
| 2026-05-04 21:29 | 44.83187 | 4.25395 | 6968 ft | 291 kts | 159° |
| 2026-05-04 21:29 | 44.81296 | 4.26451 | 6973 ft | 294 kts | 158° |
| 2026-05-04 21:30 | 44.79394 | 4.27528 | 6998 ft | 293 kts | 157° |
| 2026-05-04 21:30 | 44.77528 | 4.28611 | 6974 ft | 288 kts | 158° |
| 2026-05-04 21:30 | 44.75690 | 4.29715 | 6981 ft | 288 kts | 157° |
| 2026-05-04 21:30 | 44.73847 | 4.30829 | 6981 ft | 289 kts | 158° |
| 2026-05-04 21:31 | 44.70116 | 4.33076 | 6498 ft | 295 kts | 157° |
| 2026-05-04 21:31 | 44.68225 | 4.34219 | 5885 ft | 295 kts | 158° |
| 2026-05-04 21:31 | 44.66346 | 4.35351 | 5435 ft | 293 kts | 157° |
| 2026-05-04 21:32 | 44.64472 | 4.36455 | 5086 ft | 289 kts | 157° |
| 2026-05-04 21:32 | 44.62627 | 4.37529 | 4977 ft | 287 kts | 157° |
| 2026-05-04 21:32 | 44.60793 | 4.38602 | 4993 ft | 286 kts | 158° |
| 2026-05-04 21:32 | 44.58961 | 4.39686 | 4990 ft | 285 kts | 157° |
| 2026-05-04 21:33 | 44.57136 | 4.40761 | 4977 ft | 283 kts | 157° |
| 2026-05-04 21:33 | 44.55324 | 4.41801 | 5117 ft | 282 kts | 158° |
| 2026-05-04 21:33 | 44.53491 | 4.42855 | 5549 ft | 287 kts | 157° |
| 2026-05-04 21:33 | 44.51638 | 4.43912 | 6507 ft | 286 kts | 157° |
| 2026-05-04 21:34 | 44.49808 | 4.44956 | 7544 ft | 282 kts | 158° |
| 2026-05-04 21:34 | 44.47994 | 4.46054 | 8329 ft | 287 kts | 156° |
| 2026-05-04 21:34 | 44.46164 | 4.47207 | 9163 ft | 289 kts | 156° |
| 2026-05-04 21:34 | 44.44308 | 4.48373 | 9901 ft | 295 kts | 157° |
| 2026-05-04 21:35 | 44.42446 | 4.49571 | 10511 ft | 301 kts | 156° |
| 2026-05-04 21:35 | 44.40540 | 4.50820 | 10884 ft | 303 kts | 156° |
| 2026-05-04 21:35 | 44.38631 | 4.52084 | 10974 ft | 304 kts | 156° |
| 2026-05-04 21:35 | 44.36718 | 4.53353 | 10982 ft | 305 kts | 156° |
| 2026-05-04 21:36 | 44.34797 | 4.54627 | 10979 ft | 305 kts | 156° |
| 2026-05-04 21:36 | 44.32873 | 4.55902 | 10971 ft | 305 kts | 156° |
| 2026-05-04 21:36 | 44.30954 | 4.57181 | 10977 ft | 306 kts | 156° |
| 2026-05-04 21:36 | 44.29022 | 4.58442 | 10968 ft | 307 kts | 158° |
| 2026-05-04 21:37 | 44.27064 | 4.59658 | 10974 ft | 308 kts | 158° |
| 2026-05-04 21:37 | 44.25098 | 4.60871 | 10974 ft | 309 kts | 158° |
| 2026-05-04 21:37 | 44.23132 | 4.62079 | 10974 ft | 309 kts | 158° |
| 2026-05-04 21:37 | 44.21161 | 4.63286 | 10973 ft | 309 kts | 158° |
| 2026-05-04 21:38 | 44.19191 | 4.64496 | 10971 ft | 309 kts | 158° |
| 2026-05-04 21:38 | 44.17231 | 4.65702 | 10962 ft | 309 kts | 158° |
| 2026-05-04 21:38 | 44.15252 | 4.66920 | 10626 ft | 312 kts | 158° |
| 2026-05-04 21:38 | 44.13277 | 4.68130 | 10328 ft | 307 kts | 158° |
| 2026-05-04 21:39 | 44.11337 | 4.69317 | 9923 ft | 307 kts | 158° |
| 2026-05-04 21:39 | 44.09388 | 4.70479 | 9436 ft | 308 kts | 159° |
| 2026-05-04 21:39 | 44.07440 | 4.71618 | 9049 ft | 305 kts | 159° |
| 2026-05-04 21:39 | 44.05514 | 4.72742 | 8610 ft | 303 kts | 159° |
| 2026-05-04 21:40 | 44.03579 | 4.73873 | 8224 ft | 301 kts | 159° |
| 2026-05-04 21:40 | 44.01642 | 4.75001 | 7997 ft | 296 kts | 159° |
| 2026-05-04 21:40 | 43.99766 | 4.76089 | 7964 ft | 295 kts | 159° |
| 2026-05-04 21:40 | 43.97870 | 4.77186 | 7961 ft | 296 kts | 159° |
| 2026-05-04 21:41 | 43.95960 | 4.78294 | 7968 ft | 297 kts | 159° |
| 2026-05-04 21:41 | 43.94057 | 4.79398 | 7964 ft | 297 kts | 159° |
| 2026-05-04 21:41 | 43.92155 | 4.80503 | 7962 ft | 297 kts | 159° |
| 2026-05-04 21:41 | 43.90239 | 4.81620 | 7861 ft | 299 kts | 159° |
| 2026-05-04 21:42 | 43.88299 | 4.82750 | 7309 ft | 306 kts | 159° |
| 2026-05-04 21:42 | 43.86358 | 4.83885 | 7040 ft | 300 kts | 159° |
| 2026-05-04 21:42 | 43.84498 | 4.84976 | 6739 ft | 296 kts | 159° |
| 2026-05-04 21:42 | 43.82578 | 4.86104 | 6348 ft | 294 kts | 159° |
| 2026-05-04 21:43 | 43.80701 | 4.87197 | 5986 ft | 291 kts | 159° |
| 2026-05-04 21:43 | 43.78822 | 4.88143 | 5635 ft | 286 kts | 165° |
| 2026-05-04 21:43 | 43.76945 | 4.89010 | 5269 ft | 282 kts | 162° |
| 2026-05-04 21:43 | 43.75096 | 4.89882 | 4905 ft | 278 kts | 162° |
| 2026-05-04 21:44 | 43.73277 | 4.90751 | 4472 ft | 276 kts | 159° |
| 2026-05-04 21:44 | 43.71610 | 4.92050 | 4095 ft | 275 kts | 146° |
| 2026-05-04 21:44 | 43.70081 | 4.93655 | 3630 ft | 276 kts | 144° |
| 2026-05-04 21:44 | 43.68574 | 4.95293 | 3265 ft | 273 kts | 143° |
| 2026-05-04 21:45 | 43.67035 | 4.96747 | 2886 ft | 270 kts | 152° |
| 2026-05-04 21:45 | 43.65303 | 4.97739 | 2470 ft | 269 kts | 158° |
| 2026-05-04 21:45 | 43.63637 | 4.98852 | 2106 ft | 261 kts | 144° |
| 2026-05-04 21:45 | 43.62216 | 5.00260 | 1764 ft | 246 kts | 141° |
| 2026-05-04 21:46 | 43.60901 | 5.01636 | 1366 ft | 230 kts | 140° |
| 2026-05-04 21:46 | 43.59668 | 5.02921 | 1058 ft | 215 kts | 141° |
| 2026-05-04 21:46 | 43.58532 | 5.04096 | 979 ft | 194 kts | 140° |
| 2026-05-04 21:46 | 43.57502 | 5.05129 | 999 ft | 172 kts | 140° |
| 2026-05-04 21:47 | 43.56593 | 5.06055 | 1003 ft | 157 kts | 139° |
| 2026-05-04 21:47 | 43.55727 | 5.06960 | 993 ft | 155 kts | 138° |
| 2026-05-04 21:47 | 43.54885 | 5.07866 | 992 ft | 156 kts | 137° |
| 2026-05-04 21:47 | 43.54040 | 5.08782 | 998 ft | 155 kts | 137° |
| 2026-05-04 21:48 | 43.53185 | 5.09715 | 999 ft | 157 kts | 138° |
| 2026-05-04 21:48 | 43.52331 | 5.10653 | 993 ft | 157 kts | 137° |
| 2026-05-04 21:48 | 43.51482 | 5.11601 | 1018 ft | 157 kts | 138° |
| 2026-05-04 21:48 | 43.50623 | 5.12533 | 996 ft | 156 kts | 140° |
| 2026-05-04 21:49 | 43.49775 | 5.13456 | 902 ft | 157 kts | 138° |
| 2026-05-04 21:49 | 43.49208 | 5.14067 | 806 ft | 156 kts | 139° |
| 2026-05-04 21:49 | 43.48118 | 5.15321 | 629 ft | 157 kts | 136° |
| 2026-05-04 21:49 | 43.47560 | 5.15998 | 574 ft | 159 kts | 135° |
| 2026-05-04 21:50 | 43.46737 | 5.16992 | 426 ft | 160 kts | 138° |
| 2026-05-04 21:50 | 43.45757 | 5.18499 | 358 ft | 162 kts | 127° |
| 2026-05-04 21:50 | 43.45005 | 5.19634 | 93 ft | 153 kts | 139° |
| 2026-05-04 21:50 | 43.44536 | 5.20273 | 39 ft | 134 kts | 133° |
| 2026-05-04 21:51 | 43.44015 | 5.21046 | 39 ft | 94 kts | 135° |
| 2026-05-04 21:51 | 43.43659 | 5.21534 | 49 ft | 46 kts | 137° |
| 2026-05-04 21:51 | 43.43556 | 5.21668 | 50 ft | 3 kts | 135° |
| 2026-05-04 21:51 | 43.43522 | 5.21716 | 51 ft | 9 kts | 134° |
| 2026-05-04 21:52 | 43.43443 | 5.21823 | 47 ft | 19 kts | 137° |
| 2026-05-04 21:52 | 43.43343 | 5.22008 | 53 ft | 15 kts | 104° |
| 2026-05-04 21:52 | 43.43338 | 5.22091 | 53 ft | 11 kts | 90° |
| 2026-05-04 21:52 | 43.43338 | 5.22117 | 53 ft | 0 kts | 90° |
| 2026-05-04 21:53 | 43.43339 | 5.22129 | 53 ft | 8 kts | 90° |
| 2026-05-04 21:53 | 43.43352 | 5.22244 | 52 ft | 11 kts | 69° |
| 2026-05-04 21:53 | 43.43408 | 5.22287 | 52 ft | 9 kts | 348° |
| 2026-05-04 21:53 | 43.43482 | 5.22231 | 48 ft | 15 kts | 329° |
| 2026-05-04 21:54 | 43.43566 | 5.22163 | 48 ft | 10 kts | 330° |
| 2026-05-04 21:54 | 43.43619 | 5.22122 | 50 ft | 10 kts | 330° |
| 2026-05-04 21:54 | 43.43690 | 5.22065 | 49 ft | 15 kts | 328° |
| 2026-05-04 21:54 | 43.43788 | 5.22032 | 49 ft | 14 kts | 12° |
| 2026-05-04 21:55 | 43.43845 | 5.22106 | 49 ft | 10 kts | 57° |
| 2026-05-04 21:55 | 43.43886 | 5.22169 | 49 ft | 7 kts | 25° |
| 2026-05-04 21:55 | 43.43921 | 5.22162 | 48 ft | 5 kts | 347° |
| 2026-05-04 21:55 | 43.43963 | 5.22150 | 47 ft | 7 kts | 348° |
| 2026-05-04 21:56 | 43.43994 | 5.22162 | 47 ft | 0 kts | 51° |
| 2026-05-04 21:58 | 43.43979 | 5.22186 | 47 ft | 0 kts | 59° |
| 2026-05-04 21:59 | 43.43972 | 5.22233 | 48 ft | 0 kts | 37° |